createdAt,value
2023-05-03T00:02:11.043Z,100.00
2023-05-03T00:04:38.626Z,100.00
2023-05-03T00:07:05.565Z,100.00
2023-05-03T00:09:35.070Z,100.00
2023-05-03T00:12:02.731Z,100.00
2023-05-03T00:14:29.688Z,100.00
2023-05-03T00:16:56.632Z,100.00
2023-05-03T00:19:31.378Z,100.00
2023-05-03T00:21:59.374Z,100.00
2023-05-03T00:24:27.248Z,100.00
2023-05-03T00:26:54.146Z,100.00
2023-05-03T00:29:22.967Z,100.00
2023-05-03T00:31:49.988Z,100.00
2023-05-03T00:34:17.219Z,100.00
2023-05-03T00:36:44.218Z,100.00
2023-05-03T00:39:11.560Z,100.00
2023-05-03T00:41:39.292Z,100.00
2023-05-03T00:44:06.589Z,100.00
2023-05-03T00:46:34.205Z,100.00
2023-05-03T00:49:01.613Z,100.00
2023-05-03T00:51:48.261Z,100.00
2023-05-03T00:54:49.274Z,100.00
2023-05-03T00:57:30.865Z,100.00
2023-05-03T00:59:59.176Z,100.00
2023-05-03T01:02:26.978Z,100.00
2023-05-03T01:04:55.444Z,100.00
2023-05-03T01:07:45.848Z,100.00
2023-05-03T01:10:22.454Z,100.00
2023-05-03T01:13:03.630Z,100.00
2023-05-03T01:15:49.414Z,100.00
2023-05-03T01:18:22.186Z,100.00
2023-05-03T01:20:50.815Z,100.00
2023-05-03T01:23:34.336Z,100.00
2023-05-03T01:26:15.387Z,100.00
2023-05-03T01:28:42.310Z,100.00
2023-05-03T01:31:10.630Z,100.00
2023-05-03T01:33:47.420Z,100.00
2023-05-03T01:36:26.581Z,100.00
2023-05-03T01:38:54.470Z,100.00
2023-05-03T01:41:24.956Z,100.00
2023-05-03T01:43:54.901Z,100.00
2023-05-03T01:46:22.431Z,100.00
2023-05-03T01:48:49.509Z,100.00
2023-05-03T01:51:16.414Z,100.00
2023-05-03T01:53:43.394Z,100.00
2023-05-03T01:56:10.346Z,100.00
2023-05-03T01:58:37.368Z,100.00
2023-05-03T02:01:06.985Z,100.00
2023-05-03T02:03:34.470Z,100.00
2023-05-03T02:06:01.503Z,100.00
2023-05-03T02:08:29.089Z,100.00
2023-05-03T02:10:56.062Z,100.00
2023-05-03T02:13:23.012Z,100.00
2023-05-03T02:15:50.116Z,100.00
2023-05-03T02:18:17.517Z,100.00
2023-05-03T02:20:46.268Z,100.00
2023-05-03T02:23:13.596Z,100.00
2023-05-03T02:25:41.759Z,100.00
2023-05-03T02:28:08.655Z,100.00
2023-05-03T02:30:36.195Z,100.00
2023-05-03T02:33:03.177Z,100.00
2023-05-03T02:35:30.931Z,100.00
2023-05-03T02:37:57.907Z,100.00
2023-05-03T02:40:25.448Z,100.00
2023-05-03T02:42:52.756Z,100.00
2023-05-03T02:45:25.023Z,100.00
2023-05-03T02:47:52.097Z,100.00
2023-05-03T02:50:19.607Z,100.00
2023-05-03T02:52:46.901Z,100.00
2023-05-03T02:55:13.879Z,100.00
2023-05-03T02:57:43.159Z,100.00
2023-05-03T03:00:15.352Z,100.00
2023-05-03T03:02:43.085Z,100.00
2023-05-03T03:05:10.813Z,100.00
2023-05-03T03:07:39.834Z,100.00
2023-05-03T03:10:07.902Z,100.00
2023-05-03T03:12:38.325Z,100.00
2023-05-03T03:15:09.153Z,100.00
2023-05-03T03:17:39.496Z,100.00
2023-05-03T03:20:13.457Z,100.00
2023-05-03T03:22:45.593Z,100.00
2023-05-03T03:25:12.867Z,100.00
2023-05-03T03:27:40.176Z,100.00
2023-05-03T03:30:09.441Z,100.00
2023-05-03T03:32:44.752Z,100.00
2023-05-03T03:35:17.216Z,100.00
2023-05-03T03:37:44.276Z,100.00
2023-05-03T03:40:12.233Z,100.00
2023-05-03T03:42:40.533Z,100.00
2023-05-03T03:45:08.035Z,100.00
2023-05-03T03:47:34.971Z,100.00
2023-05-03T03:50:02.457Z,100.00
2023-05-03T03:52:32.059Z,100.00
2023-05-03T03:54:59.057Z,100.00
2023-05-03T03:57:30.341Z,100.00
2023-05-03T04:00:17.389Z,100.00
2023-05-03T04:03:25.415Z,100.00
2023-05-03T04:06:26.443Z,100.00
2023-05-03T04:09:10.894Z,100.00
2023-05-03T04:11:39.050Z,100.00
2023-05-03T04:14:07.280Z,100.00
2023-05-03T04:16:34.590Z,100.00
2023-05-03T04:19:03.528Z,100.00
2023-05-03T04:21:33.462Z,100.00
2023-05-03T04:24:02.088Z,100.00
2023-05-03T04:26:32.098Z,100.00
2023-05-03T04:29:07.201Z,100.00
2023-05-03T04:31:35.814Z,100.00
2023-05-03T04:34:02.882Z,100.00
2023-05-03T04:36:30.109Z,100.00
2023-05-03T04:38:58.760Z,100.00
2023-05-03T04:41:25.860Z,100.00
2023-05-03T04:43:54.479Z,100.00
2023-05-03T04:46:21.922Z,100.00
2023-05-03T04:48:50.635Z,100.00
2023-05-03T04:51:18.734Z,100.00
2023-05-03T04:53:46.868Z,100.00
2023-05-03T04:56:17.859Z,100.00
2023-05-03T04:58:45.075Z,100.00
2023-05-03T05:01:14.874Z,100.00
2023-05-03T05:03:41.947Z,100.00
2023-05-03T05:06:16.073Z,100.00
2023-05-03T05:08:43.183Z,100.00
2023-05-03T05:11:13.866Z,100.00
2023-05-03T05:13:54.420Z,100.00
2023-05-03T05:16:55.476Z,100.00
2023-05-03T05:19:36.032Z,100.00
2023-05-03T05:22:03.025Z,100.00
2023-05-03T05:24:39.623Z,100.00
2023-05-03T05:27:07.052Z,100.00
2023-05-03T05:29:34.309Z,100.00
2023-05-03T05:32:03.576Z,100.00
2023-05-03T05:34:39.100Z,100.00
2023-05-03T05:37:11.649Z,100.00
2023-05-03T05:39:39.214Z,100.00
2023-05-03T05:42:06.875Z,100.00
2023-05-03T05:44:33.834Z,100.00
2023-05-03T05:47:01.130Z,100.00
2023-05-03T05:49:48.438Z,100.00
2023-05-03T05:52:29.115Z,100.00
2023-05-03T05:54:56.481Z,100.00
2023-05-03T05:57:23.550Z,100.00
2023-05-03T05:59:52.600Z,100.00
2023-05-03T06:02:23.289Z,100.00
2023-05-03T06:04:50.418Z,100.00
2023-05-03T06:07:17.748Z,100.00
2023-05-03T06:09:44.702Z,100.00
2023-05-03T06:12:12.759Z,100.00
2023-05-03T06:14:51.696Z,100.00
2023-05-03T06:17:29.606Z,100.00
2023-05-03T06:19:57.597Z,100.00
2023-05-03T06:22:25.363Z,100.00
2023-05-03T06:24:53.405Z,100.00
2023-05-03T06:27:20.459Z,100.00
2023-05-03T06:29:50.098Z,100.00
2023-05-03T06:32:19.053Z,100.00
2023-05-03T06:34:46.691Z,100.00
2023-05-03T06:37:15.501Z,100.00
2023-05-03T06:39:42.544Z,100.00
2023-05-03T06:42:09.579Z,100.00
2023-05-03T06:44:39.481Z,100.00
2023-05-03T06:47:06.992Z,100.00
2023-05-03T06:49:34.006Z,100.00
2023-05-03T06:52:00.886Z,100.00
2023-05-03T06:54:27.835Z,100.00
2023-05-03T06:56:54.725Z,100.00
2023-05-03T06:59:21.652Z,100.00
2023-05-03T07:02:08.623Z,100.00
2023-05-03T07:05:09.605Z,100.00
2023-05-03T07:08:10.480Z,100.00
2023-05-03T07:11:11.460Z,100.00
2023-05-03T07:14:12.466Z,100.00
2023-05-03T07:17:13.494Z,100.00
2023-05-03T07:19:54.340Z,100.00
2023-05-03T07:22:24.812Z,100.00
2023-05-03T07:24:54.629Z,96.48
2023-05-03T07:27:22.073Z,90.07
2023-05-03T07:29:49.025Z,100.00
2023-05-03T07:32:16.811Z,94.10
2023-05-03T07:34:43.805Z,88.43
2023-05-03T07:37:10.712Z,92.93
2023-05-03T07:42:58.469Z,93.97
2023-05-03T07:45:39.336Z,90.48
2023-05-03T07:48:08.348Z,93.61
2023-05-03T07:50:56.796Z,85.35
2023-05-03T07:53:40.482Z,79.03
2023-05-03T07:56:07.932Z,100.00
2023-05-03T07:58:40.087Z,92.08
2023-05-03T08:01:07.941Z,91.82
2023-05-03T08:03:35.451Z,82.82
2023-05-03T08:06:03.198Z,87.25
2023-05-03T08:08:31.660Z,86.47
2023-05-03T08:10:58.586Z,91.75
2023-05-03T08:13:25.736Z,84.88
2023-05-03T08:15:53.017Z,90.31
2023-05-03T08:18:22.309Z,89.16
2023-05-03T08:20:50.801Z,88.72
2023-05-03T08:23:17.981Z,88.79
2023-05-03T08:25:45.555Z,86.77
2023-05-03T08:28:12.380Z,91.62
2023-05-03T08:30:39.543Z,92.29
2023-05-03T08:33:06.529Z,82.84
2023-05-03T08:35:53.549Z,82.58
2023-05-03T08:38:54.562Z,86.57
2023-05-03T08:41:48.525Z,84.28
2023-05-03T08:44:29.891Z,86.23
2023-05-03T08:46:56.883Z,100.00
2023-05-03T08:49:24.446Z,100.00
2023-05-03T08:51:52.314Z,100.00
2023-05-03T08:54:22.131Z,100.00
2023-05-03T08:56:49.682Z,100.00
2023-05-03T08:59:17.500Z,100.00
2023-05-03T09:01:44.665Z,100.00
2023-05-03T09:04:12.331Z,100.00
2023-05-03T09:06:39.933Z,100.00
2023-05-03T09:09:08.758Z,100.00
2023-05-03T09:11:38.474Z,100.00
2023-05-03T09:14:16.761Z,98.80
2023-05-03T09:16:46.893Z,93.92
2023-05-03T09:19:16.647Z,95.69
2023-05-03T09:21:47.339Z,97.35
2023-05-03T09:24:35.561Z,100.00
2023-05-03T09:27:37.577Z,100.00
2023-05-03T09:30:21.332Z,100.00
2023-05-03T09:33:08.601Z,100.00
2023-05-03T09:36:04.958Z,99.61
2023-05-03T09:38:51.550Z,100.00
2023-05-03T09:41:52.608Z,97.79
2023-05-03T09:44:53.983Z,96.95
2023-05-03T09:47:25.495Z,99.06
2023-05-03T09:49:52.704Z,92.89
2023-05-03T09:52:21.896Z,87.51
2023-05-03T09:54:49.929Z,84.12
2023-05-03T09:57:17.725Z,85.17
2023-05-03T09:59:45.305Z,82.03
2023-05-03T10:02:12.328Z,94.45
2023-05-03T10:05:06.968Z,94.26
2023-05-03T10:07:51.787Z,86.74
2023-05-03T10:10:19.525Z,91.59
2023-05-03T10:13:06.769Z,71.13
2023-05-03T10:15:49.662Z,76.73
2023-05-03T10:18:18.945Z,76.11
2023-05-03T10:20:54.975Z,88.67
2023-05-03T10:23:41.622Z,82.51
2023-05-03T10:26:42.586Z,74.39
2023-05-03T10:29:58.701Z,79.26
2023-05-03T10:32:57.600Z,69.95
2023-05-03T10:35:29.628Z,60.62
2023-05-03T10:38:27.699Z,69.49
2023-05-03T10:41:08.300Z,70.97
2023-05-03T10:43:35.282Z,76.05
2023-05-03T10:46:05.892Z,80.18
2023-05-03T10:48:53.628Z,76.58
2023-05-03T10:51:54.599Z,83.03
2023-05-03T10:54:35.181Z,84.59
2023-05-03T10:57:02.186Z,81.45
2023-05-03T10:59:47.796Z,81.60
2023-05-03T11:02:23.197Z,80.48
2023-05-03T11:04:53.208Z,89.27
2023-05-03T11:07:24.515Z,80.02
2023-05-03T11:09:52.383Z,78.82
2023-05-03T11:12:23.645Z,78.69
2023-05-03T11:14:51.072Z,84.87
2023-05-03T11:17:18.084Z,83.08
2023-05-03T11:19:48.388Z,74.29
2023-05-03T11:22:15.783Z,82.92
2023-05-03T11:25:02.895Z,82.75
2023-05-03T11:28:03.669Z,80.79
2023-05-03T11:30:46.828Z,89.96
2023-05-03T11:33:13.901Z,89.81
2023-05-03T11:35:42.341Z,79.46
2023-05-03T11:38:29.753Z,74.12
2023-05-03T11:41:19.227Z,78.94
2023-05-03T11:44:00.458Z,76.38
2023-05-03T11:46:35.790Z,76.43
2023-05-03T11:49:03.647Z,74.38
2023-05-03T11:51:31.621Z,77.38
2023-05-03T11:54:28.811Z,84.30
2023-05-03T11:57:29.635Z,76.84
2023-05-03T12:00:30.726Z,71.25
2023-05-03T12:03:34.409Z,74.02
2023-05-03T12:06:18.171Z,75.50
2023-05-03T12:08:48.621Z,75.32
2023-05-03T12:11:20.801Z,69.95
2023-05-03T12:14:03.541Z,70.17
2023-05-03T12:16:47.477Z,62.54
2023-05-03T12:19:27.752Z,63.26
2023-05-03T12:22:18.071Z,62.70
2023-05-03T12:24:45.138Z,64.17
2023-05-03T12:27:54.494Z,59.02
2023-05-03T12:30:34.743Z,62.92
2023-05-03T12:33:04.310Z,71.48
2023-05-03T12:35:34.231Z,79.58
2023-05-03T12:38:17.482Z,76.18
2023-05-03T12:41:52.197Z,72.15
2023-05-03T12:44:23.523Z,66.64
2023-05-03T12:47:16.176Z,69.27
2023-05-03T12:50:25.001Z,84.88
2023-05-03T12:53:08.888Z,72.92
2023-05-03T12:55:58.572Z,72.21
2023-05-03T12:59:27.302Z,69.91
2023-05-03T13:07:01.397Z,70.93
2023-05-03T13:09:38.615Z,65.77
2023-05-03T13:12:20.472Z,73.61
2023-05-03T13:14:48.822Z,73.17
2023-05-03T13:17:16.907Z,68.71
2023-05-03T13:19:49.757Z,64.20
2023-05-03T13:22:18.045Z,65.03
2023-05-03T13:24:46.695Z,61.60
2023-05-03T13:27:14.234Z,66.33
2023-05-03T13:29:44.766Z,76.64
2023-05-03T13:32:32.749Z,74.38
2023-05-03T13:35:13.592Z,72.48
2023-05-03T13:38:01.819Z,74.63
2023-05-03T13:41:02.836Z,69.05
2023-05-03T13:43:43.366Z,71.07
2023-05-03T13:46:10.733Z,69.14
2023-05-03T13:48:57.757Z,70.38
2023-05-03T13:51:58.746Z,69.81
2023-05-03T13:55:00.848Z,65.53
2023-05-03T13:58:09.104Z,66.12
2023-05-03T14:00:49.326Z,66.52
2023-05-03T14:03:18.311Z,64.95
2023-05-03T14:05:46.224Z,65.53
2023-05-03T14:08:27.073Z,65.13
2023-05-03T14:10:55.161Z,63.66
2023-05-03T14:13:34.789Z,67.41
2023-05-03T14:16:44.036Z,64.30
2023-05-03T14:19:34.524Z,64.24
2023-05-03T14:25:32.031Z,70.71
2023-05-03T14:27:59.232Z,69.28
2023-05-03T14:30:46.853Z,68.76
2023-05-03T14:33:37.180Z,71.88
2023-05-03T14:36:27.823Z,67.96
2023-05-03T14:39:29.008Z,68.36
2023-05-03T14:42:23.419Z,67.34
2023-05-03T14:44:50.484Z,69.38
2023-05-03T14:50:43.810Z,63.98
2023-05-03T14:53:32.525Z,62.72
2023-05-03T14:56:57.160Z,65.14
2023-05-03T15:05:51.668Z,63.85
2023-05-03T15:08:22.161Z,66.99
2023-05-03T15:10:52.042Z,68.26
2023-05-03T15:13:22.581Z,62.26
2023-05-03T15:15:49.834Z,66.33
2023-05-03T15:18:20.261Z,65.67
2023-05-03T15:20:47.906Z,64.44
2023-05-03T15:23:16.252Z,64.79
2023-05-03T15:25:46.621Z,63.98
2023-05-03T15:28:13.692Z,64.69
2023-05-03T15:30:40.818Z,63.41
2023-05-03T15:33:11.086Z,68.54
2023-05-03T15:35:41.459Z,68.53
2023-05-03T15:38:29.906Z,72.09
2023-05-03T15:41:10.448Z,70.41
2023-05-03T15:43:37.561Z,68.57
2023-05-03T15:46:24.902Z,69.94
2023-05-03T15:49:06.669Z,71.04
2023-05-03T15:52:00.815Z,66.99
2023-05-03T15:55:02.873Z,68.51
2023-05-03T15:58:06.148Z,67.12
2023-05-03T16:00:47.223Z,68.96
2023-05-03T16:03:23.436Z,66.84
2023-05-03T16:06:13.137Z,67.23
2023-05-03T16:09:18.194Z,69.63
2023-05-03T16:11:59.274Z,65.30
2023-05-03T16:14:26.562Z,66.27
2023-05-03T16:16:54.454Z,65.65
2023-05-03T16:19:23.524Z,66.41
2023-05-03T16:22:16.394Z,69.22
2023-05-03T16:25:17.911Z,69.69
2023-05-03T16:27:59.684Z,69.11
2023-05-03T16:30:26.840Z,71.64
2023-05-03T16:33:15.830Z,69.33
2023-05-03T16:35:56.805Z,69.68
2023-05-03T16:38:43.982Z,69.26
2023-05-03T16:41:24.440Z,70.43
2023-05-03T16:43:51.854Z,73.23
2023-05-03T16:46:22.862Z,76.46
2023-05-03T16:48:50.740Z,75.00
2023-05-03T16:51:40.607Z,76.77
2023-05-03T16:54:41.875Z,76.52
2023-05-03T16:57:42.944Z,74.33
2023-05-03T17:00:23.500Z,73.00
2023-05-03T17:02:51.379Z,73.31
2023-05-03T17:05:39.934Z,74.16
2023-05-03T17:08:40.924Z,73.64
2023-05-03T17:11:22.586Z,73.07
2023-05-03T17:13:49.526Z,73.47
2023-05-03T17:16:22.939Z,74.80
2023-05-03T17:18:50.505Z,74.91
2023-05-03T17:21:37.894Z,74.65
2023-05-03T17:24:18.431Z,75.64
2023-05-03T17:27:07.058Z,76.04
2023-05-03T17:29:48.665Z,76.38
2023-05-03T17:32:34.316Z,77.87
2023-05-03T17:35:05.208Z,78.74
2023-05-03T17:37:35.163Z,78.35
2023-05-03T17:40:22.881Z,78.39
2023-05-03T17:43:05.742Z,77.83
2023-05-03T17:51:53.583Z,81.14
2023-05-03T17:54:24.741Z,80.50
2023-05-03T17:57:32.007Z,81.33
2023-05-03T18:00:35.538Z,83.82
2023-05-03T18:03:18.031Z,83.59
2023-05-03T18:05:46.049Z,84.28
2023-05-03T18:08:22.060Z,85.10
2023-05-03T18:10:50.657Z,84.94
2023-05-03T18:13:22.872Z,85.79
2023-05-03T18:15:50.212Z,87.49
2023-05-03T18:18:23.938Z,88.23
2023-05-03T18:20:59.792Z,88.86
2023-05-03T18:23:26.964Z,89.11
2023-05-03T18:25:54.391Z,89.66
2023-05-03T18:28:26.848Z,90.60
2023-05-03T18:30:56.893Z,91.93
2023-05-03T18:33:24.302Z,91.72
2023-05-03T18:35:53.107Z,93.27
2023-05-03T18:38:40.207Z,93.40
2023-05-03T18:41:41.050Z,93.93
2023-05-03T18:44:24.821Z,96.12
2023-05-03T18:46:55.528Z,98.82
2023-05-03T18:49:23.065Z,100.00
2023-05-03T18:51:53.362Z,100.00
2023-05-03T18:54:33.974Z,100.00
2023-05-03T18:57:35.117Z,100.00
2023-05-03T19:00:39.132Z,100.00
2023-05-03T19:03:39.703Z,100.00
2023-05-03T19:06:39.240Z,100.00
2023-05-03T19:09:40.912Z,100.00
2023-05-03T19:13:00.347Z,100.00
2023-05-03T19:15:43.004Z,100.00
2023-05-03T19:18:42.381Z,100.00
2023-05-03T19:21:43.992Z,100.00
2023-05-03T19:24:44.353Z,100.00
2023-05-03T19:27:44.509Z,100.00
2023-05-03T19:30:13.914Z,100.00
2023-05-03T19:32:53.825Z,100.00
2023-05-03T19:35:22.958Z,100.00
2023-05-03T19:38:12.236Z,100.00
2023-05-03T19:41:18.328Z,100.00
2023-05-03T19:43:58.722Z,100.00
2023-05-03T19:46:26.228Z,100.00
2023-05-03T19:49:22.159Z,100.00
2023-05-03T19:52:08.756Z,100.00
2023-05-03T19:54:56.208Z,100.00
2023-05-03T19:57:57.084Z,100.00
2023-05-03T20:00:58.079Z,100.00
2023-05-03T20:04:00.226Z,100.00
2023-05-03T20:06:47.878Z,100.00
2023-05-03T20:09:16.929Z,100.00
2023-05-03T20:11:47.537Z,100.00
2023-05-03T20:14:37.104Z,100.00
2023-05-03T20:17:22.920Z,100.00
2023-05-03T20:19:50.625Z,100.00
2023-05-03T20:22:18.423Z,100.00
2023-05-03T20:25:06.111Z,100.00
2023-05-03T20:27:46.990Z,100.00
2023-05-03T20:30:14.482Z,100.00
2023-05-03T20:32:48.850Z,100.00
2023-05-03T20:35:25.064Z,100.00
2023-05-03T20:38:15.187Z,100.00
2023-05-03T20:41:12.321Z,100.00
2023-05-03T20:44:06.218Z,100.00
2023-05-03T20:46:39.384Z,100.00
2023-05-03T20:51:57.093Z,100.00
2023-05-03T20:54:24.898Z,100.00
2023-05-03T20:56:52.045Z,100.00
2023-05-03T20:59:25.874Z,100.00
2023-05-03T21:01:53.073Z,100.00
2023-05-03T21:04:40.051Z,100.00
2023-05-03T21:07:21.720Z,100.00
2023-05-03T21:09:49.036Z,100.00
2023-05-03T21:12:18.335Z,100.00
2023-05-03T21:15:06.505Z,100.00
2023-05-03T21:17:47.439Z,100.00
2023-05-03T21:20:15.975Z,100.00
2023-05-03T21:23:03.628Z,100.00
2023-05-03T21:25:43.709Z,100.00
2023-05-03T21:28:11.955Z,100.00
2023-05-03T21:30:42.296Z,100.00
2023-05-03T21:36:19.447Z,100.00
2023-05-03T21:39:20.075Z,100.00
2023-05-03T21:42:00.544Z,100.00
2023-05-03T21:44:27.772Z,100.00
2023-05-03T21:46:54.797Z,100.00
2023-05-03T21:49:25.536Z,100.00
2023-05-03T21:51:52.965Z,100.00
2023-05-03T21:54:40.084Z,100.00
2023-05-03T21:57:41.131Z,100.00
2023-05-03T22:00:35.102Z,100.00
2023-05-03T22:03:36.172Z,100.00
2023-05-03T22:06:24.476Z,100.00
2023-05-03T22:08:51.535Z,100.00
2023-05-03T22:11:25.784Z,100.00
2023-05-03T22:14:15.099Z,100.00
2023-05-03T22:16:56.106Z,100.00
2023-05-03T22:19:23.082Z,100.00
2023-05-03T22:21:50.558Z,100.00
2023-05-03T22:24:24.172Z,100.00
2023-05-03T22:26:51.363Z,100.00
2023-05-03T22:29:38.093Z,100.00
2023-05-03T22:32:20.391Z,100.00
2023-05-03T22:34:50.198Z,100.00
2023-05-03T22:37:18.766Z,100.00
2023-05-03T22:40:07.080Z,100.00
2023-05-03T22:42:49.931Z,100.00
2023-05-03T22:45:21.211Z,100.00
2023-05-03T22:47:51.182Z,100.00
2023-05-03T22:50:22.778Z,100.00
2023-05-03T22:52:49.961Z,100.00
2023-05-03T22:55:18.312Z,100.00
2023-05-03T22:57:51.701Z,100.00
2023-05-03T23:00:24.908Z,100.00
2023-05-03T23:02:52.006Z,100.00
2023-05-03T23:05:22.034Z,100.00
2023-05-03T23:07:49.169Z,100.00
2023-05-03T23:10:16.571Z,100.00
2023-05-03T23:13:09.999Z,100.00
2023-05-03T23:16:11.564Z,100.00
2023-05-03T23:18:55.668Z,100.00
2023-05-03T23:21:22.904Z,100.00
2023-05-03T23:24:13.728Z,100.00
2023-05-03T23:27:15.681Z,100.00
2023-05-03T23:29:56.788Z,100.00
2023-05-03T23:32:24.269Z,100.00
2023-05-03T23:34:51.643Z,100.00
2023-05-03T23:37:27.067Z,100.00
2023-05-03T23:40:24.987Z,100.00
2023-05-03T23:45:49.900Z,100.00
2023-05-03T23:48:26.166Z,100.00
2023-05-03T23:50:53.433Z,100.00
2023-05-03T23:53:21.132Z,100.00
2023-05-03T23:55:48.281Z,100.00
2023-05-03T23:58:16.348Z,100.00
